LGAD/PYR METAR and TAF weather

Enter ICAO airport designator
Station Type Date Time Source
LGAD METAR 2021/04/14 18:50 UTC NOAA

LGAD 141850Z 32009KT 9999 FEW020 14/08 Q1017


Station Type Date Time Source
LGAD Decoded METAR 2021/04/14 18:50 UTC NOAA

Andravida Airport , Greece (LGAD) 37-55N 021-17E 14M
Apr 14, 2021 - 02:50 PM EDT / 2021.04.14 1850 UTC
Wind: from the NW (320 degrees) at 10 MPH (9 KT):0
Visibility: greater than 7 mile(s):0
Sky conditions: mostly clear
Temperature: 57 F (14 C)
Dew Point: 46 F (8 C)
Relative Humidity: 67%
Pressure (altimeter): 30.03 in. Hg (1017 hPa)
ob: LGAD 141850Z 32009KT 9999 FEW020 14/08 Q1017
cycle: 19

Station Type Date Time Source
LGAD TAF 2020/03/18 09:39 UTC NOAA

TAF TAF LGAD 180800Z 1809/1821 30006KT 9999 FEW030
BECMG 1816/1818 07010KT

Example: see airport list